Time;durP1;ratioP1;P1;durP2;ratioP2;P2;SDS_P1;SDS_P2;PMS_P1;PMS_P2;Temp;Humidity;BMP_temperature;BMP_pressure;BME280_temperature;BME280_humidity;BME280_pressure;Samples;Min_cycle;Max_cycle;Signal;HPM_P1;HPM_P2
2021/12/12 00:02:45;;;;;;;44.00;24.75;;;128.20;2252.80;;;;;;5068505;28;20069;-77
2021/12/12 00:05:16;;;;;;;38.55;23.88;;;128.20;2252.80;;;;;;5065360;28;20025;-76
2021/12/12 00:07:42;;;;;;;43.47;22.65;;;128.20;2252.80;;;;;;5047102;28;20390;-76
2021/12/12 00:10:17;;;;;;;41.08;23.30;;;128.20;2252.80;;;;;;5051844;28;20032;-76
2021/12/12 00:12:48;;;;;;;39.33;23.00;;;128.10;2252.80;;;;;;5064959;28;20024;-77
2021/12/12 00:15:16;;;;;;;37.53;21.83;;;128.10;2252.80;;;;;;5065674;28;20585;-77
2021/12/12 00:17:42;;;;;;;39.38;22.27;;;128.10;2252.80;;;;;;5046098;28;20029;-76
2021/12/12 00:20:11;;;;;;;30.75;19.23;;;128.00;2252.80;;;;;;5053455;28;20118;-75
2021/12/12 00:22:38;;;;;;;39.05;21.13;;;128.00;2252.80;;;;;;5054233;28;20024;-75
2021/12/12 00:25:07;;;;;;;36.38;20.67;;;128.00;2252.80;;;;;;5072102;28;20074;-76
2021/12/12 00:27:34;;;;;;;35.03;20.40;;;128.00;2252.80;;;;;;5065918;28;20510;-76
2021/12/12 00:30:03;;;;;;;36.45;19.88;;;128.00;2252.80;;;;;;5055875;28;20063;-76
2021/12/12 00:32:31;;;;;;;40.38;21.15;;;128.00;2252.80;;;;;;5054198;28;20509;-76
2021/12/12 00:35:00;;;;;;;35.30;19.63;;;128.00;2252.80;;;;;;5063577;28;20028;-77
2021/12/12 00:37:28;;;;;;;34.40;20.40;;;128.00;2252.80;;;;;;5063214;28;20382;-76
2021/12/12 00:39:58;;;;;;;35.83;19.83;;;128.00;2252.80;;;;;;5035194;28;20057;-77
2021/12/12 00:42:29;;;;;;;39.95;22.60;;;128.00;2252.80;;;;;;5058623;28;20063;-76
2021/12/12 00:44:58;;;;;;;39.13;21.98;;;128.00;2252.80;;;;;;5055060;28;20028;-76
2021/12/12 00:47:25;;;;;;;42.92;21.02;;;128.00;2252.80;;;;;;5053562;28;20028;-75
2021/12/12 00:49:52;;;;;;;34.80;22.50;;;128.00;2252.80;;;;;;5053518;28;20430;-75
2021/12/12 00:52:20;;;;;;;37.47;23.08;;;128.00;2252.80;;;;;;5063823;28;20028;-75
2021/12/12 00:54:48;;;;;;;39.78;21.77;;;128.00;2252.80;;;;;;5070372;28;20024;-75
2021/12/12 00:57:17;;;;;;;36.95;21.25;;;128.00;2252.80;;;;;;5071811;28;20028;-76
2021/12/12 00:59:45;;;;;;;42.90;23.40;;;103.30;2227.20;;;;;;5071487;28;20099;-76
2021/12/12 01:02:20;;;;;;;40.97;22.85;;;103.30;2227.20;;;;;;5053732;28;20529;-75
2021/12/12 01:04:50;;;;;;;38.37;22.10;;;103.30;2227.20;;;;;;5071544;28;20475;-75
2021/12/12 01:07:25;;;;;;;46.58;23.85;;;103.30;2227.20;;;;;;5070640;28;20029;-76
2021/12/12 01:09:57;;;;;;;38.70;21.83;;;103.30;2227.20;;;;;;5070469;28;20042;-75
2021/12/12 01:12:30;;;;;;;41.17;21.95;;;103.30;2227.20;;;;;;5070154;28;20491;-75
2021/12/12 01:15:12;;;;;;;45.22;22.65;;;103.30;2227.20;;;;;;5071521;28;20017;-76
2021/12/12 01:17:42;;;;;;;38.65;22.00;;;103.30;2227.20;;;;;;5071876;28;20017;-75
2021/12/12 01:20:21;;;;;;;40.95;21.60;;;103.20;2227.20;;;;;;5046450;28;20055;-75
2021/12/12 01:22:50;;;;;;;40.15;21.88;;;103.20;2227.20;;;;;;5071810;28;20025;-75
2021/12/12 01:25:30;;;;;;;36.95;22.30;;;103.20;2227.20;;;;;;5052293;28;20040;-75
2021/12/12 01:27:57;;;;;;;43.88;23.88;;;103.20;2227.20;;;;;;5071271;28;20387;-75
2021/12/12 01:30:24;;;;;;;44.33;25.70;;;103.20;2227.20;;;;;;5053856;28;20029;-75
2021/12/12 01:32:52;;;;;;;44.85;22.73;;;103.20;2227.20;;;;;;5052565;28;20035;-75
2021/12/12 01:35:20;;;;;;;37.42;20.73;;;103.20;2227.20;;;;;;5070338;28;20399;-75
2021/12/12 01:40:42;;;;;;;42.67;23.35;;;103.20;2227.20;;;;;;4974082;28;20129;-75
2021/12/12 01:43:18;;;;;;;38.10;23.13;;;103.20;2227.20;;;;;;4958696;28;20190;-75
2021/12/12 01:45:47;;;;;;;37.72;22.52;;;103.10;2227.20;;;;;;4954836;29;20031;-75
2021/12/12 01:48:39;;;;;;;39.55;21.60;;;103.10;2227.20;;;;;;4938939;29;20055;-77
2021/12/12 01:51:08;;;;;;;39.63;21.70;;;103.10;2227.20;;;;;;4955932;28;20045;-76
2021/12/12 01:53:37;;;;;;;41.75;24.65;;;103.10;2227.20;;;;;;4957214;28;20042;-76
2021/12/12 01:56:11;;;;;;;44.80;22.00;;;103.10;2227.20;;;;;;4957967;28;20035;-77
2021/12/12 01:58:40;;;;;;;39.60;22.63;;;103.10;2227.20;;;;;;4974033;28;20544;-75
2021/12/12 02:01:14;;;;;;;38.22;23.70;;;103.00;2227.20;;;;;;4973786;28;20034;-76
2021/12/12 02:03:45;;;;;;;39.92;22.33;;;103.00;2227.20;;;;;;4973953;28;20127;-75
2021/12/12 02:06:13;;;;;;;38.28;23.08;;;103.00;2227.20;;;;;;4960649;28;20027;-75
2021/12/12 02:08:41;;;;;;;40.28;23.98;;;103.00;2227.20;;;;;;4954470;29;20114;-75
2021/12/12 02:11:13;;;;;;;43.47;22.83;;;103.00;2227.20;;;;;;4967516;28;20508;-75
2021/12/12 02:13:46;;;;;;;37.83;22.85;;;103.00;2227.20;;;;;;4972745;28;20061;-75
2021/12/12 02:16:12;;;;;;;41.70;22.38;;;103.00;2227.20;;;;;;4973507;28;20113;-76
2021/12/12 02:18:44;;;;;;;39.67;21.73;;;103.00;2227.20;;;;;;5045076;28;20070;-76
2021/12/12 02:21:57;;;;;;;39.47;20.95;;;103.00;2227.20;;;;;;5056275;28;20036;-75
2021/12/12 02:35:18;;;;;;;34.20;21.45;;;103.10;2227.20;;;;;;5074578;28;20038;-76
2021/12/12 02:37:45;;;;;;;37.35;19.73;;;103.10;2227.20;;;;;;5074025;28;20064;-76
2021/12/12 02:40:17;;;;;;;36.00;22.42;;;103.10;2227.20;;;;;;5074308;28;20016;-76
2021/12/12 02:42:43;;;;;;;40.85;22.73;;;103.10;2227.20;;;;;;5074217;28;20035;-76
2021/12/12 02:45:10;;;;;;;41.25;23.05;;;103.10;2227.20;;;;;;5073634;28;20078;-75
2021/12/12 02:47:38;;;;;;;39.15;21.50;;;103.00;2227.20;;;;;;5074042;28;20025;-76
2021/12/12 02:50:34;;;;;;;41.67;22.08;;;103.00;2227.20;;;;;;5054191;28;20033;-76
2021/12/12 02:53:09;;;;;;;38.50;23.07;;;103.00;2227.20;;;;;;5071529;28;20094;-75
2021/12/12 02:55:40;;;;;;;37.63;20.17;;;103.00;2227.20;;;;;;5056075;28;20470;-76
2021/12/12 02:58:09;;;;;;;34.95;22.48;;;103.00;2227.20;;;;;;5073654;28;20723;-75
2021/12/12 03:00:38;;;;;;;37.10;19.83;;;103.00;2227.20;;;;;;5073585;28;20071;-75
2021/12/12 03:03:04;;;;;;;36.08;20.40;;;103.00;2227.20;;;;;;5054925;28;20479;-75
2021/12/12 03:05:35;;;;;;;34.40;18.25;;;103.00;2227.20;;;;;;5072913;28;20082;-75
2021/12/12 03:08:01;;;;;;;39.55;22.73;;;103.00;2227.20;;;;;;5073748;28;20387;-75
2021/12/12 03:10:33;;;;;;;41.00;20.50;;;103.00;2227.20;;;;;;5073369;28;20055;-75
2021/12/12 03:12:59;;;;;;;37.20;20.15;;;103.00;2227.20;;;;;;5055284;28;20036;-76
2021/12/12 03:15:31;;;;;;;37.72;21.55;;;103.00;2227.20;;;;;;5073235;28;20028;-76
2021/12/12 03:18:00;;;;;;;39.25;21.33;;;103.00;2227.20;;;;;;5055869;28;20051;-77
2021/12/12 03:20:37;;;;;;;39.20;19.58;;;103.00;2227.20;;;;;;5073244;28;20103;-77
2021/12/12 03:23:29;;;;;;;39.15;22.20;;;103.00;2227.20;;;;;;5054534;28;20028;-76
2021/12/12 03:25:59;;;;;;;34.03;20.17;;;103.00;2227.20;;;;;;5055568;28;20040;-76
2021/12/12 03:28:28;;;;;;;37.17;20.15;;;103.00;2227.20;;;;;;5073700;28;20040;-77
2021/12/12 03:30:56;;;;;;;42.22;22.52;;;103.00;2227.20;;;;;;5073023;28;20123;-75
2021/12/12 03:33:23;;;;;;;32.28;18.83;;;103.00;2227.20;;;;;;5055233;28;20541;-76
2021/12/12 03:35:52;;;;;;;35.03;20.70;;;103.00;2227.20;;;;;;5072989;28;20025;-76
2021/12/12 03:38:19;;;;;;;38.13;20.23;;;103.00;2227.20;;;;;;5054657;28;20468;-75
2021/12/12 03:40:45;;;;;;;32.78;17.90;;;102.90;2227.20;;;;;;5054495;28;20399;-76
2021/12/12 03:43:13;;;;;;;35.22;19.90;;;102.90;2227.20;;;;;;5073158;28;20105;-77
2021/12/12 03:45:40;;;;;;;36.85;21.95;;;102.90;2227.20;;;;;;5072469;28;20029;-77
2021/12/12 03:48:15;;;;;;;34.35;19.73;;;102.90;2227.20;;;;;;5054234;28;20043;-76
2021/12/12 03:50:44;;;;;;;39.78;19.33;;;102.90;2227.20;;;;;;5072972;28;20070;-77
2021/12/12 03:53:10;;;;;;;33.92;19.83;;;102.90;2227.20;;;;;;5054118;28;20032;-77
2021/12/12 03:55:37;;;;;;;34.00;20.63;;;102.80;2227.20;;;;;;5055040;28;20386;-77
2021/12/12 03:58:06;;;;;;;33.30;20.30;;;102.80;2227.20;;;;;;5054718;28;20021;-77
2021/12/12 04:01:18;;;;;;;36.85;19.35;;;102.90;2227.20;;;;;;5054077;28;20039;-78
2021/12/12 04:03:46;;;;;;;36.17;20.17;;;102.90;2227.20;;;;;;5049482;28;20060;-76
2021/12/12 04:06:15;;;;;;;34.75;20.58;;;102.90;2227.20;;;;;;5054587;28;20040;-77
2021/12/12 04:08:44;;;;;;;35.90;20.25;;;102.90;2227.20;;;;;;5053610;28;20032;-78
2021/12/12 04:11:30;;;;;;;39.28;21.75;;;102.90;2227.20;;;;;;5053818;28;20036;-77
2021/12/12 04:13:57;;;;;;;39.97;20.10;;;102.90;2227.20;;;;;;5072125;28;20048;-76
2021/12/12 04:16:26;;;;;;;42.22;20.35;;;102.90;2227.20;;;;;;5072134;28;20028;-75
2021/12/12 04:18:52;;;;;;;40.63;21.10;;;102.90;2227.20;;;;;;5054744;28;20031;-75
2021/12/12 04:21:20;;;;;;;38.83;21.27;;;102.90;2227.20;;;;;;5072109;28;20029;-75
2021/12/12 04:23:46;;;;;;;40.33;21.30;;;102.90;2227.20;;;;;;5072306;28;20055;-75
2021/12/12 04:26:26;;;;;;;35.13;20.33;;;102.80;2227.20;;;;;;5053989;28;20112;-75
2021/12/12 04:29:09;;;;;;;33.45;20.25;;;102.90;2227.20;;;;;;5054206;28;20044;-75
2021/12/12 04:31:37;;;;;;;37.10;20.48;;;102.80;2227.20;;;;;;5052360;28;20025;-75
2021/12/12 04:34:05;;;;;;;36.28;21.38;;;102.80;2227.20;;;;;;5071734;28;20035;-75
2021/12/12 04:36:41;;;;;;;39.25;19.00;;;102.80;2227.20;;;;;;5053600;28;20025;-75
2021/12/12 04:39:16;;;;;;;36.63;20.67;;;102.80;2227.20;;;;;;5071609;28;20037;-76
2021/12/12 04:41:44;;;;;;;29.38;18.38;;;102.80;2227.20;;;;;;5053525;28;20802;-75
2021/12/12 04:44:10;;;;;;;35.45;19.58;;;102.80;2227.20;;;;;;5053978;28;20036;-74
2021/12/12 04:49:55;;;;;;;35.42;19.45;;;102.80;2227.20;;;;;;5072133;28;20110;-75
2021/12/12 04:52:33;;;;;;;35.80;18.98;;;102.80;2227.20;;;;;;5072088;28;20048;-75
2021/12/12 04:55:14;;;;;;;36.80;19.42;;;102.80;2227.20;;;;;;5072056;28;20383;-75
2021/12/12 04:57:46;;;;;;;34.90;18.23;;;102.80;2227.20;;;;;;5071788;28;20024;-75
2021/12/12 05:00:30;;;;;;;33.25;18.65;;;102.80;2227.20;;;;;;5054236;28;20028;-77
2021/12/12 05:03:28;;;;;;;31.02;18.92;;;102.80;2227.20;;;;;;5072300;28;20035;-75
2021/12/12 05:06:03;;;;;;;28.88;18.60;;;102.80;2227.20;;;;;;4973649;28;20038;-75
2021/12/12 05:08:41;;;;;;;33.95;17.73;;;102.90;2227.20;;;;;;4973971;28;20141;-76
2021/12/12 05:11:49;;;;;;;36.55;18.75;;;102.90;2227.20;;;;;;4990632;28;20038;-77
2021/12/12 05:14:22;;;;;;;25.88;16.42;;;102.90;2227.20;;;;;;4967377;28;20039;-77
2021/12/12 05:16:57;;;;;;;33.13;17.33;;;102.90;2227.20;;;;;;4994249;28;20461;-76
2021/12/12 05:19:28;;;;;;;38.53;20.75;;;102.80;2227.20;;;;;;4977869;28;20442;-77
2021/12/12 05:22:00;;;;;;;34.80;19.00;;;102.80;2227.20;;;;;;4978030;28;20062;-76
2021/12/12 05:24:29;;;;;;;34.90;19.90;;;102.80;2227.20;;;;;;4977109;28;20362;-76
2021/12/12 05:27:13;;;;;;;33.85;20.10;;;102.80;2227.20;;;;;;4977696;28;20038;-77
2021/12/12 05:29:48;;;;;;;32.72;18.23;;;102.80;2227.20;;;;;;4994331;28;20795;-76
2021/12/12 05:32:15;;;;;;;32.50;19.15;;;102.80;2227.20;;;;;;4977220;28;20508;-74
2021/12/12 05:34:48;;;;;;;37.60;19.00;;;102.80;2227.20;;;;;;4994015;28;20023;-74
2021/12/12 05:37:16;;;;;;;35.70;20.77;;;102.70;2227.20;;;;;;4976668;28;20397;-76
2021/12/12 05:39:42;;;;;;;29.45;19.13;;;102.70;2227.20;;;;;;4993728;28;20125;-76
2021/12/12 05:42:08;;;;;;;32.92;21.52;;;102.80;2227.20;;;;;;5029364;28;20470;-75
2021/12/12 05:44:35;;;;;;;35.88;19.23;;;102.60;2227.20;;;;;;5075163;28;20069;-75
2021/12/12 05:47:04;;;;;;;32.35;20.02;;;102.60;2227.20;;;;;;5075485;28;20021;-76
2021/12/12 05:49:32;;;;;;;36.42;19.92;;;102.60;2227.20;;;;;;5075003;28;20032;-76
2021/12/12 05:51:59;;;;;;;42.15;22.40;;;102.60;2227.20;;;;;;5056803;28;20024;-75
2021/12/12 05:54:29;;;;;;;36.08;20.80;;;102.60;2227.20;;;;;;5053929;28;20513;-75
2021/12/12 05:56:58;;;;;;;38.60;22.20;;;102.60;2227.20;;;;;;5056820;28;20037;-75
2021/12/12 05:59:24;;;;;;;38.28;21.00;;;102.60;2227.20;;;;;;5036871;28;20060;-75
2021/12/12 06:01:50;;;;;;;36.53;20.35;;;102.60;2227.20;;;;;;5037293;28;20415;-75
2021/12/12 06:04:18;;;;;;;34.45;19.50;;;102.60;2227.20;;;;;;5054476;28;20406;-76
2021/12/12 06:06:45;;;;;;;34.80;20.63;;;102.60;2227.20;;;;;;5054501;28;20096;-76
2021/12/12 06:09:13;;;;;;;36.63;19.90;;;102.50;2227.20;;;;;;5037075;28;20682;-75
2021/12/12 06:11:43;;;;;;;39.38;20.25;;;102.50;2227.20;;;;;;5060252;28;20024;-75
2021/12/12 06:14:11;;;;;;;35.22;20.83;;;102.50;2227.20;;;;;;5056807;28;20029;-75
2021/12/12 06:16:38;;;;;;;32.83;18.83;;;102.50;2227.20;;;;;;5074497;28;20025;-75
2021/12/12 06:19:24;;;;;;;38.63;17.70;;;102.50;2227.20;;;;;;5074806;28;20052;-75
2021/12/12 06:21:52;;;;;;;33.78;19.83;;;102.50;2227.20;;;;;;5074675;28;20029;-75
2021/12/12 06:24:21;;;;;;;36.28;20.40;;;102.40;2227.20;;;;;;5054543;28;20033;-75
2021/12/12 06:26:47;;;;;;;31.60;18.60;;;102.40;2227.20;;;;;;5056619;28;20089;-74
2021/12/12 06:29:13;;;;;;;37.05;21.08;;;102.40;2227.20;;;;;;5074127;28;20023;-75
2021/12/12 06:31:42;;;;;;;41.92;21.35;;;102.40;2227.20;;;;;;5074561;28;20395;-75
2021/12/12 06:34:09;;;;;;;33.85;20.15;;;102.40;2227.20;;;;;;5074114;28;20107;-75
2021/12/12 06:36:36;;;;;;;36.13;21.77;;;77.70;2227.20;;;;;;5074171;28;20020;-75
2021/12/12 06:39:05;;;;;;;33.85;20.83;;;77.70;2227.20;;;;;;5073836;28;20127;-75
2021/12/12 06:41:31;;;;;;;32.83;19.67;;;77.70;2227.20;;;;;;5056227;28;20033;-75
2021/12/12 06:43:58;;;;;;;35.67;20.88;;;77.70;2227.20;;;;;;5055476;28;20089;-75
2021/12/12 06:46:24;;;;;;;30.35;19.98;;;77.70;2227.20;;;;;;5055793;28;20112;-75
2021/12/12 06:48:52;;;;;;;29.90;16.35;;;77.60;2227.20;;;;;;5056323;28;20059;-74
2021/12/12 06:51:18;;;;;;;39.10;22.05;;;77.60;2227.20;;;;;;5055739;28;20382;-75
2021/12/12 06:53:46;;;;;;;39.28;19.70;;;77.60;2227.20;;;;;;5055576;28;20036;-75
2021/12/12 06:56:16;;;;;;;36.55;19.83;;;77.50;2227.20;;;;;;5073601;28;20372;-74
2021/12/12 06:58:42;;;;;;;37.53;20.25;;;77.50;2227.20;;;;;;5055637;28;20020;-74
2021/12/12 07:01:16;;;;;;;35.80;20.35;;;77.40;2227.20;;;;;;5055707;28;20135;-74
2021/12/12 07:03:43;;;;;;;40.20;21.73;;;77.40;2227.20;;;;;;5055391;28;20410;-75
2021/12/12 07:06:10;;;;;;;32.47;20.00;;;77.40;2227.20;;;;;;5073778;28;20614;-75
2021/12/12 07:08:36;;;;;;;39.50;22.63;;;77.20;2227.20;;;;;;5071804;28;20063;-74
2021/12/12 07:11:03;;;;;;;34.90;19.95;;;77.30;2227.20;;;;;;5073711;28;20024;-74
2021/12/12 07:13:29;;;;;;;41.20;23.48;;;77.30;2227.20;;;;;;5073199;28;20029;-74
2021/12/12 07:15:57;;;;;;;32.80;19.63;;;77.20;2227.20;;;;;;5073188;28;20029;-74
2021/12/12 07:18:27;;;;;;;40.90;24.20;;;77.20;2227.20;;;;;;5055349;28;20464;-74
2021/12/12 07:20:57;;;;;;;38.10;22.85;;;77.10;2227.20;;;;;;5054751;28;20467;-75
2021/12/12 07:23:23;;;;;;;60.33;29.30;;;77.00;2227.20;;;;;;5073501;28;20470;-74
2021/12/12 07:25:50;;;;;;;47.88;26.20;;;76.90;2227.20;;;;;;5054995;28;20036;-74
2021/12/12 07:28:16;;;;;;;51.97;26.67;;;76.90;2227.20;;;;;;5037554;28;20037;-74
2021/12/12 07:30:43;;;;;;;49.60;26.00;;;76.90;2227.20;;;;;;5052820;28;20360;-74
2021/12/12 07:33:10;;;;;;;54.17;31.30;;;76.80;2227.20;;;;;;5053252;28;20029;-74
2021/12/12 07:35:39;;;;;;;49.80;28.17;;;76.90;2227.20;;;;;;5053020;28;20084;-74
2021/12/12 07:38:09;;;;;;;50.72;24.70;;;76.80;2227.20;;;;;;5034813;28;20399;-74
2021/12/12 07:40:36;;;;;;;54.42;28.30;;;76.80;2227.20;;;;;;5059192;28;20021;-74
2021/12/12 07:43:02;;;;;;;54.83;28.83;;;52.10;2227.20;;;;;;5072627;28;20029;-74
2021/12/12 07:45:29;;;;;;;45.22;26.55;;;52.10;2227.20;;;;;;5072976;28;20043;-74
2021/12/12 07:47:55;;;;;;;52.25;28.75;;;52.00;2227.20;;;;;;5054692;28;20471;-73
2021/12/12 07:50:25;;;;;;;58.10;30.48;;;52.00;2227.20;;;;;;5072510;28;20033;-73
2021/12/12 07:52:51;;;;;;;60.22;32.50;;;52.00;2227.20;;;;;;5072329;28;20024;-74
2021/12/12 07:55:17;;;;;;;52.17;30.88;;;51.90;2227.20;;;;;;5072463;28;20031;-74
2021/12/12 07:57:43;;;;;;;62.38;31.65;;;51.90;2227.20;;;;;;5071672;28;20028;-74
2021/12/12 08:00:16;;;;;;;61.53;32.85;;;51.90;2227.20;;;;;;5033834;28;20071;-74
2021/12/12 08:02:43;;;;;;;66.03;35.15;;;51.90;2227.20;;;;;;5051099;28;20037;-74
2021/12/12 08:05:13;;;;;;;62.65;35.50;;;51.80;2227.20;;;;;;5064274;28;20027;-74
2021/12/12 08:07:40;;;;;;;54.00;30.63;;;51.80;2227.20;;;;;;5072446;28;20029;-74
2021/12/12 08:10:11;;;;;;;63.53;31.80;;;51.80;2227.20;;;;;;5054345;28;20032;-74
2021/12/12 08:12:38;;;;;;;59.75;30.55;;;51.80;2227.20;;;;;;5053773;28;20036;-74
2021/12/12 08:15:09;;;;;;;56.60;32.28;;;51.80;2227.20;;;;;;5054614;28;20403;-75
2021/12/12 08:17:36;;;;;;;61.30;33.58;;;51.70;2227.20;;;;;;5072171;28;20490;-74
2021/12/12 08:20:06;;;;;;;63.28;34.33;;;51.70;2227.20;;;;;;5054498;28;20031;-75
2021/12/12 08:22:32;;;;;;;62.08;33.08;;;51.70;2227.20;;;;;;5052726;28;20059;-74
2021/12/12 08:25:00;;;;;;;65.28;33.42;;;51.70;2227.20;;;;;;5072251;28;20035;-75
2021/12/12 08:27:26;;;;;;;69.38;35.58;;;51.70;2227.20;;;;;;5071411;28;20032;-75
2021/12/12 08:29:52;;;;;;;64.15;35.75;;;51.70;2227.20;;;;;;5053840;28;20479;-75
2021/12/12 08:32:18;;;;;;;62.58;32.53;;;51.70;2227.20;;;;;;5072220;28;20103;-75
2021/12/12 08:34:46;;;;;;;69.97;38.58;;;51.70;2227.20;;;;;;5071578;28;20070;-75
2021/12/12 08:37:12;;;;;;;66.07;33.08;;;51.70;2227.20;;;;;;5054262;28;20021;-75
2021/12/12 08:39:38;;;;;;;69.05;35.17;;;51.70;2227.20;;;;;;5053897;28;20063;-74
2021/12/12 08:42:06;;;;;;;75.88;40.63;;;51.70;2227.20;;;;;;5071251;28;20755;-74
2021/12/12 08:44:34;;;;;;;69.05;35.65;;;51.70;2227.20;;;;;;5046540;28;20024;-74
2021/12/12 08:47:01;;;;;;;76.32;36.95;;;51.70;2227.20;;;;;;5051671;28;20039;-74
2021/12/12 08:49:30;;;;;;;65.60;34.25;;;51.70;2227.20;;;;;;5065250;28;20116;-74
2021/12/12 08:52:04;;;;;;;68.78;37.10;;;51.70;2227.20;;;;;;5063078;28;20059;-74
2021/12/12 08:54:33;;;;;;;70.20;37.63;;;51.70;2227.20;;;;;;5061829;28;20025;-74
2021/12/12 08:57:10;;;;;;;78.80;38.42;;;51.70;2227.20;;;;;;5055584;28;20305;-74
2021/12/12 08:59:40;;;;;;;65.47;33.90;;;51.70;2227.20;;;;;;5062804;28;20099;-73
2021/12/12 09:02:12;;;;;;;71.45;36.53;;;51.70;2227.20;;;;;;5053183;28;20750;-73
2021/12/12 09:04:47;;;;;;;72.90;38.25;;;51.70;2227.20;;;;;;5061462;28;20445;-73
2021/12/12 09:07:28;;;;;;;64.70;30.60;;;51.70;2227.20;;;;;;5059282;28;20051;-74
2021/12/12 09:10:17;;;;;;;58.38;31.45;;;51.70;2227.20;;;;;;5065146;28;20028;-74
2021/12/12 09:12:51;;;;;;;60.83;34.22;;;51.70;2227.20;;;;;;5040693;28;20365;-75
2021/12/12 09:15:26;;;;;;;62.22;29.60;;;51.70;2227.20;;;;;;5053859;28;20017;-73
2021/12/12 09:17:57;;;;;;;59.63;31.85;;;51.70;2227.20;;;;;;5045148;28;20017;-74
2021/12/12 09:20:34;;;;;;;55.28;29.77;;;51.70;2227.20;;;;;;5051307;28;20115;-75
2021/12/12 09:23:06;;;;;;;58.10;30.63;;;51.70;2227.20;;;;;;5051549;28;20033;-74
2021/12/12 09:25:50;;;;;;;63.80;32.75;;;51.70;2227.20;;;;;;5063759;28;20112;-75
2021/12/12 09:28:19;;;;;;;61.72;31.88;;;51.70;2227.20;;;;;;5052073;28;20029;-75
2021/12/12 09:30:45;;;;;;;68.53;35.75;;;51.70;2227.20;;;;;;5061100;28;20025;-74
2021/12/12 09:33:27;;;;;;;68.38;35.72;;;51.70;2227.20;;;;;;5064624;28;20058;-79
2021/12/12 09:35:58;;;;;;;59.53;31.73;;;51.70;2227.20;;;;;;5052221;28;20033;-74
2021/12/12 09:38:42;;;;;;;59.15;31.88;;;51.70;2227.20;;;;;;5062053;28;20045;-74
2021/12/12 09:41:26;;;;;;;62.58;30.00;;;51.80;2227.20;;;;;;5051581;28;20048;-74
2021/12/12 09:44:19;;;;;;;62.42;33.40;;;51.70;2227.20;;;;;;5050933;28;20021;-73
2021/12/12 09:47:25;;;;;;;60.90;32.35;;;51.80;2227.20;;;;;;5061292;28;20016;-74
2021/12/12 09:53:19;;;;;;;64.43;32.25;;;51.70;2227.20;;;;;;5062095;28;20155;-74
2021/12/12 09:55:59;;;;;;;71.63;33.35;;;51.70;2227.20;;;;;;5000366;28;20022;-74
2021/12/12 09:58:55;;;;;;;65.25;31.80;;;51.70;2227.20;;;;;;5001830;28;20030;-74
2021/12/12 10:01:23;;;;;;;53.88;29.13;;;51.70;2227.20;;;;;;5005436;28;20018;-74
2021/12/12 10:04:13;;;;;;;65.10;32.13;;;51.70;2227.20;;;;;;5004961;28;20061;-73
2021/12/12 10:07:05;;;;;;;67.40;32.40;;;51.70;2227.20;;;;;;4987303;28;20054;-74
2021/12/12 10:09:49;;;;;;;62.05;32.03;;;51.80;2227.20;;;;;;5004619;28;20038;-73
2021/12/12 10:12:19;;;;;;;75.35;36.13;;;51.80;2227.20;;;;;;5002682;28;20034;-73
2021/12/12 10:15:04;;;;;;;71.72;36.83;;;51.70;2227.20;;;;;;5006676;28;20030;-73
2021/12/12 10:17:48;;;;;;;66.82;34.90;;;51.70;2227.20;;;;;;4998014;28;20034;-74
2021/12/12 10:20:26;;;;;;;63.40;33.55;;;51.80;2227.20;;;;;;4991037;28;20022;-74
2021/12/12 10:22:52;;;;;;;62.28;31.73;;;51.80;2227.20;;;;;;5009743;28;20038;-74
2021/12/12 10:25:26;;;;;;;61.25;34.42;;;51.80;2227.20;;;;;;5006870;28;20026;-74
2021/12/12 10:28:06;;;;;;;65.72;37.28;;;51.80;2227.20;;;;;;5008376;28;20030;-74
2021/12/12 10:30:38;;;;;;;80.03;35.83;;;51.80;2227.20;;;;;;5051551;28;20431;-74
2021/12/12 10:33:16;;;;;;;59.95;35.47;;;51.80;2227.20;;;;;;5065020;28;20032;-74
2021/12/12 10:35:58;;;;;;;62.30;34.65;;;51.80;2227.20;;;;;;5066539;28;20029;-74
2021/12/12 10:39:04;;;;;;;68.57;33.15;;;51.80;2227.20;;;;;;5068341;28;20123;-74
2021/12/12 10:41:46;;;;;;;70.95;34.88;;;51.80;2227.20;;;;;;5039514;28;20076;-74
2021/12/12 10:44:32;;;;;;;74.32;33.50;;;51.80;2227.20;;;;;;5067091;28;20028;-74
2021/12/12 10:47:23;;;;;;;60.05;29.30;;;51.80;2227.20;;;;;;5071182;28;20131;-74
2021/12/12 10:50:29;;;;;;;64.03;33.17;;;51.80;2227.20;;;;;;5073739;28;20103;-73
2021/12/12 10:53:29;;;;;;;72.18;32.10;;;51.80;2227.20;;;;;;5015106;28;20077;-74
2021/12/12 10:56:26;;;;;;;70.43;34.15;;;51.80;2227.20;;;;;;4953754;29;20132;-74
2021/12/12 10:58:58;;;;;;;52.13;28.15;;;51.80;2227.20;;;;;;4953665;29;20457;-74
2021/12/12 11:01:30;;;;;;;74.57;35.20;;;51.90;2227.20;;;;;;4953261;29;20562;-74
2021/12/12 11:04:03;;;;;;;62.78;31.45;;;51.80;2227.20;;;;;;4929035;29;20109;-74
2021/12/12 11:06:37;;;;;;;65.75;36.05;;;51.80;2227.20;;;;;;4953389;29;20148;-74
2021/12/12 11:09:38;;;;;;;65.80;33.17;;;51.80;2227.20;;;;;;4952853;29;20035;-74
2021/12/12 11:12:44;;;;;;;68.47;34.92;;;51.80;2227.20;;;;;;4914824;29;20040;-74
2021/12/12 11:15:29;;;;;;;66.43;34.55;;;51.80;2227.20;;;;;;4877674;29;20091;-74
2021/12/12 11:18:14;;;;;;;62.35;34.00;;;51.80;2227.20;;;;;;4859106;29;20041;-74
2021/12/12 11:20:52;;;;;;;73.22;35.50;;;51.80;2227.20;;;;;;4875587;29;20508;-74
2021/12/12 11:23:29;;;;;;;66.95;36.88;;;51.80;2227.20;;;;;;4877088;29;20041;-74
2021/12/12 11:26:34;;;;;;;74.78;37.85;;;51.80;2227.20;;;;;;4877158;29;20563;-74
2021/12/12 11:29:04;;;;;;;68.72;34.22;;;51.80;2227.20;;;;;;4858509;29;20052;-74
2021/12/12 11:32:07;;;;;;;71.70;35.95;;;51.80;2227.20;;;;;;4858418;29;20042;-74
2021/12/12 11:34:33;;;;;;;68.30;36.55;;;51.80;2227.20;;;;;;4854868;29;20041;-74
2021/12/12 11:37:25;;;;;;;71.13;37.65;;;51.80;2227.20;;;;;;4858007;29;20042;-74
2021/12/12 11:40:23;;;;;;;66.13;33.13;;;51.80;2227.20;;;;;;4859756;29;20056;-74
2021/12/12 11:42:57;;;;;;;62.60;33.13;;;51.80;2227.20;;;;;;4838704;29;20054;-74
2021/12/12 11:45:25;;;;;;;66.13;35.80;;;51.70;2227.20;;;;;;4837788;29;20138;-75
2021/12/12 11:48:00;;;;;;;68.28;34.65;;;51.80;2227.20;;;;;;4846422;29;20125;-74
2021/12/12 11:50:41;;;;;;;76.00;38.78;;;51.90;2227.20;;;;;;4876781;29;20033;-76
2021/12/12 11:53:31;;;;;;;63.38;36.28;;;51.80;2227.20;;;;;;4860693;29;20040;-74
2021/12/12 11:56:23;;;;;;;66.78;35.50;;;51.80;2227.20;;;;;;4880169;29;20041;-74
2021/12/12 11:59:02;;;;;;;59.40;31.50;;;51.80;2227.20;;;;;;4872551;29;20041;-74
2021/12/12 12:01:40;;;;;;;59.55;31.23;;;51.80;2227.20;;;;;;4877511;29;20029;-74
2021/12/12 12:04:15;;;;;;;59.17;31.70;;;51.80;2227.20;;;;;;4878383;29;20040;-74
2021/12/12 12:07:04;;;;;;;69.78;34.10;;;51.80;2227.20;;;;;;4879626;29;20048;-74
2021/12/12 12:10:07;;;;;;;60.72;30.83;;;51.80;2227.20;;;;;;4876045;29;20123;-74
2021/12/12 12:12:53;;;;;;;60.15;32.38;;;51.80;2227.20;;;;;;4968868;28;20829;-74
2021/12/12 12:15:25;;;;;;;61.45;32.30;;;51.90;2227.20;;;;;;4954479;28;20039;-73
2021/12/12 12:18:05;;;;;;;74.18;37.53;;;51.80;2227.20;;;;;;4970770;28;20054;-73
2021/12/12 12:21:07;;;;;;;63.58;33.78;;;51.80;2227.20;;;;;;5022673;28;20029;-74
2021/12/12 12:26:50;;;;;;;67.80;37.17;;;51.80;2227.20;;;;;;5066734;28;20119;-73
2021/12/12 12:29:30;;;;;;;78.13;38.55;;;51.90;2227.20;;;;;;5053761;28;20025;-74
2021/12/12 12:32:23;;;;;;;68.68;34.08;;;51.90;2227.20;;;;;;5059397;28;20057;-74
2021/12/12 12:35:27;;;;;;;70.13;36.10;;;51.80;2227.20;;;;;;5063077;28;20119;-74
2021/12/12 12:38:30;;;;;;;64.53;33.63;;;51.80;2227.20;;;;;;5059577;28;20045;-73
2021/12/12 12:41:22;;;;;;;69.30;35.83;;;51.80;2227.20;;;;;;5064966;28;20043;-74
2021/12/12 12:44:19;;;;;;;65.50;36.40;;;51.90;2227.20;;;;;;5063261;28;20021;-73
2021/12/12 12:47:12;;;;;;;66.20;35.67;;;51.90;2227.20;;;;;;5065753;28;20026;-73
2021/12/12 12:50:03;;;;;;;62.78;36.97;;;51.90;2227.20;;;;;;5063571;28;20025;-73
2021/12/12 12:53:18;;;;;;;61.17;31.88;;;51.90;2227.20;;;;;;5062959;28;20074;-73
2021/12/12 12:56:21;;;;;;;58.55;34.25;;;51.80;2227.20;;;;;;5060712;28;20551;-73
2021/12/12 12:58:50;;;;;;;63.75;32.97;;;51.80;2227.20;;;;;;5061052;28;20035;-73
2021/12/12 13:01:25;;;;;;;59.42;31.70;;;51.80;2227.20;;;;;;5060614;28;20013;-73
2021/12/12 13:04:26;;;;;;;60.40;34.75;;;51.80;2227.20;;;;;;5058121;28;20135;-73